Garfield Plt, Maine
Current Conditions -  °F | °C
As of 2:35 PM on Thursday 30 Oct 2014 (Local Time) from KPQI Reporting Station
Overcast Overcast  
Wind Chill: 44°   Ceiling: 4800
Heat Index: 48°   Visibility: 10mi
Dew Point: 28°   Wind: 10mph
Humidity: 46%   Direction: 310°NW
Pressure: 29.81"   Gusts: NA
Location:  46.6213°N, 68.5555°W
Report Text: KPQI 301835Z AUTO 31009KT 10SM BKN048 OVC050 09/M02 A2981 RMK AO1
Loading
Personal Weather Stations






























Interactive Weather Map
Tropical Storm Tracking
New forecast layout! Learn more

10-Day Weather Forecast

Advertisements
Track Severe Weather on mobile